sensor_id;sensor_type;location;lat;lon;timestamp;P1;durP1;ratioP1;P2;durP2;ratioP2
75358;SDS011;64046;51.978;5.934;2023-10-13T00:02:23;17.35;;;11.20;;
75358;SDS011;64046;51.978;5.934;2023-10-13T00:04:53;15.82;;;10.73;;
75358;SDS011;64046;51.978;5.934;2023-10-13T00:07:22;22.95;;;11.95;;
75358;SDS011;64046;51.978;5.934;2023-10-13T00:10:03;18.38;;;10.90;;
75358;SDS011;64046;51.978;5.934;2023-10-13T00:12:34;16.75;;;11.00;;
75358;SDS011;64046;51.978;5.934;2023-10-13T00:15:04;14.65;;;10.38;;
75358;SDS011;64046;51.978;5.934;2023-10-13T00:17:45;13.88;;;9.77;;
75358;SDS011;64046;51.978;5.934;2023-10-13T00:20:20;14.65;;;10.02;;
75358;SDS011;64046;51.978;5.934;2023-10-13T00:23:01;16.00;;;11.48;;
75358;SDS011;64046;51.978;5.934;2023-10-13T00:25:35;22.63;;;10.75;;
75358;SDS011;64046;51.978;5.934;2023-10-13T00:28:17;15.60;;;10.70;;
75358;SDS011;64046;51.978;5.934;2023-10-13T00:30:54;18.30;;;10.07;;
75358;SDS011;64046;51.978;5.934;2023-10-13T00:33:39;15.45;;;9.18;;
75358;SDS011;64046;51.978;5.934;2023-10-13T00:36:20;12.50;;;9.02;;
75358;SDS011;64046;51.978;5.934;2023-10-13T00:38:49;15.43;;;9.43;;
75358;SDS011;64046;51.978;5.934;2023-10-13T00:41:22;14.32;;;9.05;;
75358;SDS011;64046;51.978;5.934;2023-10-13T00:44:14;15.23;;;10.20;;
75358;SDS011;64046;51.978;5.934;2023-10-13T00:46:42;17.17;;;10.65;;
75358;SDS011;64046;51.978;5.934;2023-10-13T00:49:18;15.20;;;8.82;;
75358;SDS011;64046;51.978;5.934;2023-10-13T00:51:46;12.95;;;9.25;;
75358;SDS011;64046;51.978;5.934;2023-10-13T00:54:16;13.88;;;8.07;;
75358;SDS011;64046;51.978;5.934;2023-10-13T00:56:52;16.10;;;9.50;;
75358;SDS011;64046;51.978;5.934;2023-10-13T00:59:52;20.85;;;9.52;;
75358;SDS011;64046;51.978;5.934;2023-10-13T01:02:24;15.73;;;9.20;;
75358;SDS011;64046;51.978;5.934;2023-10-13T01:05:07;14.52;;;8.52;;
75358;SDS011;64046;51.978;5.934;2023-10-13T01:07:45;14.77;;;8.25;;
75358;SDS011;64046;51.978;5.934;2023-10-13T01:10:21;16.10;;;9.40;;
75358;SDS011;64046;51.978;5.934;2023-10-13T01:12:54;15.07;;;11.13;;
75358;SDS011;64046;51.978;5.934;2023-10-13T01:15:23;15.32;;;8.93;;
75358;SDS011;64046;51.978;5.934;2023-10-13T01:18:06;15.32;;;7.85;;
75358;SDS011;64046;51.978;5.934;2023-10-13T01:20:42;15.90;;;8.25;;
75358;SDS011;64046;51.978;5.934;2023-10-13T01:23:22;12.60;;;8.95;;
75358;SDS011;64046;51.978;5.934;2023-10-13T01:25:54;13.20;;;8.80;;
75358;SDS011;64046;51.978;5.934;2023-10-13T01:28:32;12.15;;;8.43;;
75358;SDS011;64046;51.978;5.934;2023-10-13T01:31:10;13.30;;;7.68;;
75358;SDS011;64046;51.978;5.934;2023-10-13T01:33:50;16.38;;;8.25;;
75358;SDS011;64046;51.978;5.934;2023-10-13T01:36:30;15.23;;;8.38;;
75358;SDS011;64046;51.978;5.934;2023-10-13T01:39:04;15.80;;;8.52;;
75358;SDS011;64046;51.978;5.934;2023-10-13T01:41:34;16.08;;;8.00;;
75358;SDS011;64046;51.978;5.934;2023-10-13T01:44:08;13.20;;;7.43;;
75358;SDS011;64046;51.978;5.934;2023-10-13T01:46:38;14.38;;;7.10;;
75358;SDS011;64046;51.978;5.934;2023-10-13T01:49:11;16.70;;;8.48;;
75358;SDS011;64046;51.978;5.934;2023-10-13T01:51:38;11.43;;;7.80;;
75358;SDS011;64046;51.978;5.934;2023-10-13T01:54:19;12.25;;;7.72;;
75358;SDS011;64046;51.978;5.934;2023-10-13T01:56:48;12.43;;;8.02;;
75358;SDS011;64046;51.978;5.934;2023-10-13T01:59:21;12.25;;;6.55;;
75358;SDS011;64046;51.978;5.934;2023-10-13T02:01:50;10.77;;;7.47;;
75358;SDS011;64046;51.978;5.934;2023-10-13T02:04:23;11.65;;;6.53;;
75358;SDS011;64046;51.978;5.934;2023-10-13T02:06:51;11.13;;;6.63;;
75358;SDS011;64046;51.978;5.934;2023-10-13T02:09:26;14.00;;;7.50;;
75358;SDS011;64046;51.978;5.934;2023-10-13T02:11:55;17.42;;;7.78;;
75358;SDS011;64046;51.978;5.934;2023-10-13T02:14:27;7.97;;;6.10;;
75358;SDS011;64046;51.978;5.934;2023-10-13T02:16:59;10.73;;;6.50;;
75358;SDS011;64046;51.978;5.934;2023-10-13T02:19:44;9.10;;;6.25;;
75358;SDS011;64046;51.978;5.934;2023-10-13T02:22:14;10.13;;;5.78;;
75358;SDS011;64046;51.978;5.934;2023-10-13T02:24:56;11.27;;;5.82;;
75358;SDS011;64046;51.978;5.934;2023-10-13T02:27:35;10.75;;;6.95;;
75358;SDS011;64046;51.978;5.934;2023-10-13T02:30:10;14.05;;;6.22;;
75358;SDS011;64046;51.978;5.934;2023-10-13T02:32:42;9.05;;;5.72;;
75358;SDS011;64046;51.978;5.934;2023-10-13T02:35:14;11.00;;;6.47;;
75358;SDS011;64046;51.978;5.934;2023-10-13T02:37:46;8.20;;;5.85;;
75358;SDS011;64046;51.978;5.934;2023-10-13T02:40:24;11.90;;;5.70;;
75358;SDS011;64046;51.978;5.934;2023-10-13T02:42:55;9.93;;;6.03;;
75358;SDS011;64046;51.978;5.934;2023-10-13T02:45:27;10.80;;;6.35;;
75358;SDS011;64046;51.978;5.934;2023-10-13T02:47:56;9.93;;;5.20;;
75358;SDS011;64046;51.978;5.934;2023-10-13T02:50:43;13.77;;;5.47;;
75358;SDS011;64046;51.978;5.934;2023-10-13T02:53:12;8.10;;;5.10;;
75358;SDS011;64046;51.978;5.934;2023-10-13T02:55:55;10.48;;;5.35;;
75358;SDS011;64046;51.978;5.934;2023-10-13T02:58:26;11.55;;;5.90;;
75358;SDS011;64046;51.978;5.934;2023-10-13T03:01:06;8.15;;;5.00;;
75358;SDS011;64046;51.978;5.934;2023-10-13T03:03:45;9.90;;;4.90;;
75358;SDS011;64046;51.978;5.934;2023-10-13T03:06:22;10.23;;;4.82;;
75358;SDS011;64046;51.978;5.934;2023-10-13T03:08:52;8.35;;;5.15;;
75358;SDS011;64046;51.978;5.934;2023-10-13T03:11:25;7.82;;;4.40;;
75358;SDS011;64046;51.978;5.934;2023-10-13T03:14:02;6.53;;;4.38;;
75358;SDS011;64046;51.978;5.934;2023-10-13T03:16:33;6.90;;;4.55;;
75358;SDS011;64046;51.978;5.934;2023-10-13T03:19:07;10.95;;;4.70;;
75358;SDS011;64046;51.978;5.934;2023-10-13T03:21:38;9.40;;;4.32;;
75358;SDS011;64046;51.978;5.934;2023-10-13T03:24:12;9.27;;;4.80;;
75358;SDS011;64046;51.978;5.934;2023-10-13T03:26:43;7.50;;;4.13;;
75358;SDS011;64046;51.978;5.934;2023-10-13T03:29:18;8.20;;;4.30;;
75358;SDS011;64046;51.978;5.934;2023-10-13T03:31:50;6.30;;;3.70;;
75358;SDS011;64046;51.978;5.934;2023-10-13T03:34:32;9.52;;;4.30;;
75358;SDS011;64046;51.978;5.934;2023-10-13T03:37:07;7.45;;;4.10;;
75358;SDS011;64046;51.978;5.934;2023-10-13T03:39:49;7.30;;;4.30;;
75358;SDS011;64046;51.978;5.934;2023-10-13T03:42:22;10.57;;;4.35;;
75358;SDS011;64046;51.978;5.934;2023-10-13T03:44:52;6.50;;;4.05;;
75358;SDS011;64046;51.978;5.934;2023-10-13T03:47:24;7.45;;;3.85;;
75358;SDS011;64046;51.978;5.934;2023-10-13T03:49:58;8.27;;;4.45;;
75358;SDS011;64046;51.978;5.934;2023-10-13T03:52:41;11.45;;;5.03;;
75358;SDS011;64046;51.978;5.934;2023-10-13T03:55:13;8.38;;;4.78;;
75358;SDS011;64046;51.978;5.934;2023-10-13T03:57:52;13.10;;;6.25;;
75358;SDS011;64046;51.978;5.934;2023-10-13T04:00:22;8.48;;;5.53;;
75358;SDS011;64046;51.978;5.934;2023-10-13T04:02:53;12.82;;;6.40;;
75358;SDS011;64046;51.978;5.934;2023-10-13T04:05:35;13.27;;;6.50;;
75358;SDS011;64046;51.978;5.934;2023-10-13T04:08:20;15.15;;;6.10;;
75358;SDS011;64046;51.978;5.934;2023-10-13T04:11:02;15.52;;;7.43;;
75358;SDS011;64046;51.978;5.934;2023-10-13T04:13:48;12.80;;;7.00;;
75358;SDS011;64046;51.978;5.934;2023-10-13T04:16:30;16.02;;;7.40;;
75358;SDS011;64046;51.978;5.934;2023-10-13T04:19:17;11.43;;;6.07;;
75358;SDS011;64046;51.978;5.934;2023-10-13T04:21:55;12.32;;;6.35;;
75358;SDS011;64046;51.978;5.934;2023-10-13T04:24:40;12.13;;;6.75;;
75358;SDS011;64046;51.978;5.934;2023-10-13T04:27:21;10.07;;;6.38;;
75358;SDS011;64046;51.978;5.934;2023-10-13T04:30:07;9.90;;;6.25;;
75358;SDS011;64046;51.978;5.934;2023-10-13T04:32:50;13.43;;;6.75;;
75358;SDS011;64046;51.978;5.934;2023-10-13T04:35:31;10.57;;;6.05;;
75358;SDS011;64046;51.978;5.934;2023-10-13T04:38:13;13.52;;;7.38;;
75358;SDS011;64046;51.978;5.934;2023-10-13T04:40:58;15.80;;;7.72;;
75358;SDS011;64046;51.978;5.934;2023-10-13T04:43:45;16.38;;;8.48;;
75358;SDS011;64046;51.978;5.934;2023-10-13T04:46:30;18.88;;;8.27;;
75358;SDS011;64046;51.978;5.934;2023-10-13T04:49:22;15.55;;;7.82;;
75358;SDS011;64046;51.978;5.934;2023-10-13T04:52:04;16.42;;;7.30;;
75358;SDS011;64046;51.978;5.934;2023-10-13T04:54:53;19.23;;;8.60;;
75358;SDS011;64046;51.978;5.934;2023-10-13T04:57:35;16.05;;;8.27;;
75358;SDS011;64046;51.978;5.934;2023-10-13T05:00:14;14.10;;;8.70;;
75358;SDS011;64046;51.978;5.934;2023-10-13T05:03:00;12.43;;;7.30;;
75358;SDS011;64046;51.978;5.934;2023-10-13T05:05:43;36.38;;;8.00;;
75358;SDS011;64046;51.978;5.934;2023-10-13T05:08:41;11.23;;;7.57;;
75358;SDS011;64046;51.978;5.934;2023-10-13T05:11:28;13.55;;;7.53;;
75358;SDS011;64046;51.978;5.934;2023-10-13T05:14:17;15.52;;;8.88;;
75358;SDS011;64046;51.978;5.934;2023-10-13T05:16:59;13.93;;;8.43;;
75358;SDS011;64046;51.978;5.934;2023-10-13T05:19:58;14.80;;;10.23;;
75358;SDS011;64046;51.978;5.934;2023-10-13T05:22:39;14.13;;;8.57;;
75358;SDS011;64046;51.978;5.934;2023-10-13T05:25:24;16.52;;;10.48;;
75358;SDS011;64046;51.978;5.934;2023-10-13T05:28:09;14.38;;;9.25;;
75358;SDS011;64046;51.978;5.934;2023-10-13T05:30:51;18.98;;;10.25;;
75358;SDS011;64046;51.978;5.934;2023-10-13T05:33:37;16.13;;;9.18;;
75358;SDS011;64046;51.978;5.934;2023-10-13T05:36:23;13.65;;;8.82;;
75358;SDS011;64046;51.978;5.934;2023-10-13T05:39:06;14.52;;;8.60;;
75358;SDS011;64046;51.978;5.934;2023-10-13T05:41:47;17.25;;;8.43;;
75358;SDS011;64046;51.978;5.934;2023-10-13T05:44:29;10.60;;;6.70;;
75358;SDS011;64046;51.978;5.934;2023-10-13T05:47:23;11.57;;;7.18;;
75358;SDS011;64046;51.978;5.934;2023-10-13T05:50:07;10.85;;;6.20;;
75358;SDS011;64046;51.978;5.934;2023-10-13T05:53:02;12.15;;;6.70;;
75358;SDS011;64046;51.978;5.934;2023-10-13T05:55:44;9.70;;;5.25;;
75358;SDS011;64046;51.978;5.934;2023-10-13T05:58:30;11.05;;;5.95;;
75358;SDS011;64046;51.978;5.934;2023-10-13T06:01:12;9.90;;;5.07;;
75358;SDS011;64046;51.978;5.934;2023-10-13T06:03:54;6.63;;;4.95;;
75358;SDS011;64046;51.978;5.934;2023-10-13T06:06:36;10.55;;;5.70;;
75358;SDS011;64046;51.978;5.934;2023-10-13T06:09:20;9.82;;;6.13;;
75358;SDS011;64046;51.978;5.934;2023-10-13T06:12:10;9.90;;;5.63;;
75358;SDS011;64046;51.978;5.934;2023-10-13T06:14:52;8.90;;;5.22;;
75358;SDS011;64046;51.978;5.934;2023-10-13T06:17:35;11.95;;;5.57;;
75358;SDS011;64046;51.978;5.934;2023-10-13T06:20:17;10.50;;;6.20;;
75358;SDS011;64046;51.978;5.934;2023-10-13T06:22:59;8.43;;;5.93;;
75358;SDS011;64046;51.978;5.934;2023-10-13T06:25:49;10.10;;;5.97;;
75358;SDS011;64046;51.978;5.934;2023-10-13T06:28:31;9.15;;;5.47;;
75358;SDS011;64046;51.978;5.934;2023-10-13T06:31:15;8.38;;;5.15;;
75358;SDS011;64046;51.978;5.934;2023-10-13T06:33:51;8.07;;;5.03;;
75358;SDS011;64046;51.978;5.934;2023-10-13T06:36:29;7.85;;;4.45;;
75358;SDS011;64046;51.978;5.934;2023-10-13T06:38:59;8.82;;;4.95;;
75358;SDS011;64046;51.978;5.934;2023-10-13T06:41:43;9.20;;;4.72;;
75358;SDS011;64046;51.978;5.934;2023-10-13T06:44:15;10.63;;;5.38;;
75358;SDS011;64046;51.978;5.934;2023-10-13T06:46:47;6.60;;;4.55;;
75358;SDS011;64046;51.978;5.934;2023-10-13T06:49:23;8.10;;;4.38;;
75358;SDS011;64046;51.978;5.934;2023-10-13T06:51:57;9.05;;;4.90;;
75358;SDS011;64046;51.978;5.934;2023-10-13T06:54:34;6.18;;;4.47;;
75358;SDS011;64046;51.978;5.934;2023-10-13T06:57:12;9.75;;;5.28;;
75358;SDS011;64046;51.978;5.934;2023-10-13T06:59:47;9.48;;;4.43;;
75358;SDS011;64046;51.978;5.934;2023-10-13T07:02:17;10.73;;;4.88;;
75358;SDS011;64046;51.978;5.934;2023-10-13T07:04:49;8.30;;;5.43;;
75358;SDS011;64046;51.978;5.934;2023-10-13T07:07:33;8.23;;;4.95;;
75358;SDS011;64046;51.978;5.934;2023-10-13T07:10:07;9.13;;;5.28;;
75358;SDS011;64046;51.978;5.934;2023-10-13T07:12:45;8.88;;;5.25;;
75358;SDS011;64046;51.978;5.934;2023-10-13T07:15:21;9.75;;;4.70;;
75358;SDS011;64046;51.978;5.934;2023-10-13T07:17:54;8.65;;;4.97;;
75358;SDS011;64046;51.978;5.934;2023-10-13T07:20:26;7.80;;;4.55;;
75358;SDS011;64046;51.978;5.934;2023-10-13T07:23:09;9.02;;;4.57;;
75358;SDS011;64046;51.978;5.934;2023-10-13T07:25:50;10.82;;;4.97;;
75358;SDS011;64046;51.978;5.934;2023-10-13T07:28:30;10.07;;;4.95;;
75358;SDS011;64046;51.978;5.934;2023-10-13T07:31:02;8.35;;;4.30;;
75358;SDS011;64046;51.978;5.934;2023-10-13T07:33:47;10.48;;;5.30;;
75358;SDS011;64046;51.978;5.934;2023-10-13T07:36:16;9.65;;;4.95;;
75358;SDS011;64046;51.978;5.934;2023-10-13T07:38:59;7.80;;;4.80;;
75358;SDS011;64046;51.978;5.934;2023-10-13T07:41:46;7.18;;;4.60;;
75358;SDS011;64046;51.978;5.934;2023-10-13T07:44:23;14.80;;;5.88;;
75358;SDS011;64046;51.978;5.934;2023-10-13T07:46:59;15.27;;;5.47;;
75358;SDS011;64046;51.978;5.934;2023-10-13T07:49:30;11.55;;;4.50;;
75358;SDS011;64046;51.978;5.934;2023-10-13T07:52:02;13.40;;;4.43;;
75358;SDS011;64046;51.978;5.934;2023-10-13T07:54:48;9.15;;;4.55;;
75358;SDS011;64046;51.978;5.934;2023-10-13T07:57:28;8.82;;;4.63;;
75358;SDS011;64046;51.978;5.934;2023-10-13T08:00:00;9.68;;;4.80;;
75358;SDS011;64046;51.978;5.934;2023-10-13T08:02:40;11.77;;;5.63;;
75358;SDS011;64046;51.978;5.934;2023-10-13T08:05:20;16.70;;;4.93;;
75358;SDS011;64046;51.978;5.934;2023-10-13T08:07:57;10.32;;;5.00;;
75358;SDS011;64046;51.978;5.934;2023-10-13T08:10:26;14.90;;;4.85;;
75358;SDS011;64046;51.978;5.934;2023-10-13T08:12:58;17.65;;;5.70;;
75358;SDS011;64046;51.978;5.934;2023-10-13T08:15:42;12.98;;;4.60;;
75358;SDS011;64046;51.978;5.934;2023-10-13T08:18:15;14.52;;;5.03;;
75358;SDS011;64046;51.978;5.934;2023-10-13T08:21:17;16.08;;;5.07;;
75358;SDS011;64046;51.978;5.934;2023-10-13T08:23:49;13.15;;;4.32;;
75358;SDS011;64046;51.978;5.934;2023-10-13T08:26:37;11.32;;;4.18;;
75358;SDS011;64046;51.978;5.934;2023-10-13T08:29:24;15.13;;;4.55;;
75358;SDS011;64046;51.978;5.934;2023-10-13T08:32:13;15.73;;;5.20;;
75358;SDS011;64046;51.978;5.934;2023-10-13T08:34:51;11.82;;;4.65;;
75358;SDS011;64046;51.978;5.934;2023-10-13T08:37:51;14.20;;;4.30;;
75358;SDS011;64046;51.978;5.934;2023-10-13T08:40:43;11.65;;;4.80;;
75358;SDS011;64046;51.978;5.934;2023-10-13T08:43:41;12.52;;;4.72;;
75358;SDS011;64046;51.978;5.934;2023-10-13T08:46:17;12.32;;;4.80;;
75358;SDS011;64046;51.978;5.934;2023-10-13T08:49:07;11.85;;;5.28;;
75358;SDS011;64046;51.978;5.934;2023-10-13T08:51:48;10.60;;;5.30;;
75358;SDS011;64046;51.978;5.934;2023-10-13T08:54:32;11.98;;;4.55;;
75358;SDS011;64046;51.978;5.934;2023-10-13T08:57:14;12.57;;;5.78;;
75358;SDS011;64046;51.978;5.934;2023-10-13T08:59:59;12.70;;;5.03;;
75358;SDS011;64046;51.978;5.934;2023-10-13T09:02:43;11.60;;;4.65;;
75358;SDS011;64046;51.978;5.934;2023-10-13T09:05:30;10.70;;;4.53;;
75358;SDS011;64046;51.978;5.934;2023-10-13T09:08:30;14.02;;;5.20;;
75358;SDS011;64046;51.978;5.934;2023-10-13T09:11:02;20.10;;;4.72;;
75358;SDS011;64046;51.978;5.934;2023-10-13T09:13:46;13.40;;;5.00;;
75358;SDS011;64046;51.978;5.934;2023-10-13T09:16:15;14.70;;;5.72;;
75358;SDS011;64046;51.978;5.934;2023-10-13T09:18:48;15.82;;;5.93;;
75358;SDS011;64046;51.978;5.934;2023-10-13T09:21:22;12.68;;;5.15;;
75358;SDS011;64046;51.978;5.934;2023-10-13T09:24:12;11.05;;;4.78;;
75358;SDS011;64046;51.978;5.934;2023-10-13T09:26:48;12.98;;;5.00;;
75358;SDS011;64046;51.978;5.934;2023-10-13T09:29:24;18.98;;;8.25;;
75358;SDS011;64046;51.978;5.934;2023-10-13T09:31:59;14.10;;;5.32;;
75358;SDS011;64046;51.978;5.934;2023-10-13T09:34:28;15.05;;;5.38;;
75358;SDS011;64046;51.978;5.934;2023-10-13T09:37:13;19.45;;;7.13;;
75358;SDS011;64046;51.978;5.934;2023-10-13T09:39:47;19.75;;;7.72;;
75358;SDS011;64046;51.978;5.934;2023-10-13T09:42:20;19.38;;;7.75;;
75358;SDS011;64046;51.978;5.934;2023-10-13T09:44:55;37.00;;;14.45;;
75358;SDS011;64046;51.978;5.934;2023-10-13T09:47:27;15.80;;;7.25;;
75358;SDS011;64046;51.978;5.934;2023-10-13T09:50:05;17.55;;;6.50;;
75358;SDS011;64046;51.978;5.934;2023-10-13T09:52:52;13.50;;;6.45;;
75358;SDS011;64046;51.978;5.934;2023-10-13T09:55:26;13.50;;;5.28;;
75358;SDS011;64046;51.978;5.934;2023-10-13T09:58:01;15.80;;;5.90;;
75358;SDS011;64046;51.978;5.934;2023-10-13T10:00:44;12.13;;;4.90;;
75358;SDS011;64046;51.978;5.934;2023-10-13T10:03:25;13.98;;;5.50;;
75358;SDS011;64046;51.978;5.934;2023-10-13T10:06:21;11.82;;;4.68;;
75358;SDS011;64046;51.978;5.934;2023-10-13T10:09:06;10.13;;;4.70;;
75358;SDS011;64046;51.978;5.934;2023-10-13T10:11:48;14.68;;;5.82;;
75358;SDS011;64046;51.978;5.934;2023-10-13T10:15:05;17.73;;;5.32;;
75358;SDS011;64046;51.978;5.934;2023-10-13T10:17:54;10.52;;;4.88;;
75358;SDS011;64046;51.978;5.934;2023-10-13T10:20:30;14.27;;;5.00;;
75358;SDS011;64046;51.978;5.934;2023-10-13T10:23:10;11.60;;;5.18;;
75358;SDS011;64046;51.978;5.934;2023-10-13T10:25:54;9.98;;;4.47;;
75358;SDS011;64046;51.978;5.934;2023-10-13T10:28:38;12.57;;;4.68;;
75358;SDS011;64046;51.978;5.934;2023-10-13T10:31:10;11.25;;;5.03;;
75358;SDS011;64046;51.978;5.934;2023-10-13T10:33:43;15.43;;;4.97;;
75358;SDS011;64046;51.978;5.934;2023-10-13T10:36:16;18.55;;;5.20;;
75358;SDS011;64046;51.978;5.934;2023-10-13T10:38:57;11.77;;;5.65;;
75358;SDS011;64046;51.978;5.934;2023-10-13T10:41:33;12.77;;;6.05;;
75358;SDS011;64046;51.978;5.934;2023-10-13T10:44:11;16.73;;;7.20;;
75358;SDS011;64046;51.978;5.934;2023-10-13T10:47:09;13.02;;;6.10;;
75358;SDS011;64046;51.978;5.934;2023-10-13T10:49:47;15.18;;;5.80;;
75358;SDS011;64046;51.978;5.934;2023-10-13T10:52:19;13.73;;;4.88;;
75358;SDS011;64046;51.978;5.934;2023-10-13T10:54:58;12.82;;;4.72;;
75358;SDS011;64046;51.978;5.934;2023-10-13T10:57:31;12.90;;;5.80;;
75358;SDS011;64046;51.978;5.934;2023-10-13T11:00:05;11.65;;;4.93;;
75358;SDS011;64046;51.978;5.934;2023-10-13T11:02:55;11.52;;;4.80;;
75358;SDS011;64046;51.978;5.934;2023-10-13T11:05:30;14.23;;;5.95;;
75358;SDS011;64046;51.978;5.934;2023-10-13T11:08:20;17.63;;;5.72;;
75358;SDS011;64046;51.978;5.934;2023-10-13T11:10:58;12.18;;;4.85;;
75358;SDS011;64046;51.978;5.934;2023-10-13T11:13:42;9.10;;;4.75;;
75358;SDS011;64046;51.978;5.934;2023-10-13T11:16:20;11.18;;;5.70;;
75358;SDS011;64046;51.978;5.934;2023-10-13T11:19:00;18.52;;;4.93;;
75358;SDS011;64046;51.978;5.934;2023-10-13T11:21:33;17.50;;;6.07;;
75358;SDS011;64046;51.978;5.934;2023-10-13T11:24:08;16.88;;;5.60;;
75358;SDS011;64046;51.978;5.934;2023-10-13T11:26:46;9.13;;;4.85;;
75358;SDS011;64046;51.978;5.934;2023-10-13T11:29:30;22.27;;;6.10;;
75358;SDS011;64046;51.978;5.934;2023-10-13T11:32:02;20.17;;;5.88;;
75358;SDS011;64046;51.978;5.934;2023-10-13T11:34:33;21.38;;;6.22;;
75358;SDS011;64046;51.978;5.934;2023-10-13T11:37:10;16.60;;;6.03;;
75358;SDS011;64046;51.978;5.934;2023-10-13T11:40:04;11.90;;;4.75;;
75358;SDS011;64046;51.978;5.934;2023-10-13T11:42:49;18.60;;;5.63;;
75358;SDS011;64046;51.978;5.934;2023-10-13T11:45:31;18.80;;;5.18;;
75358;SDS011;64046;51.978;5.934;2023-10-13T11:48:11;17.60;;;6.22;;
75358;SDS011;64046;51.978;5.934;2023-10-13T11:50:41;15.82;;;5.80;;
75358;SDS011;64046;51.978;5.934;2023-10-13T11:53:14;23.77;;;7.10;;
75358;SDS011;64046;51.978;5.934;2023-10-13T11:55:46;15.27;;;5.28;;
75358;SDS011;64046;51.978;5.934;2023-10-13T11:58:18;12.02;;;5.47;;
75358;SDS011;64046;51.978;5.934;2023-10-13T12:00:54;16.02;;;5.40;;
75358;SDS011;64046;51.978;5.934;2023-10-13T12:03:34;20.55;;;6.03;;
75358;SDS011;64046;51.978;5.934;2023-10-13T12:06:17;18.58;;;6.05;;
75358;SDS011;64046;51.978;5.934;2023-10-13T12:08:58;13.13;;;5.28;;
75358;SDS011;64046;51.978;5.934;2023-10-13T12:11:41;18.15;;;6.00;;
75358;SDS011;64046;51.978;5.934;2023-10-13T12:14:11;15.57;;;6.55;;
75358;SDS011;64046;51.978;5.934;2023-10-13T12:16:50;18.45;;;6.68;;
75358;SDS011;64046;51.978;5.934;2023-10-13T12:19:22;17.48;;;5.70;;
75358;SDS011;64046;51.978;5.934;2023-10-13T12:21:53;15.50;;;6.15;;
75358;SDS011;64046;51.978;5.934;2023-10-13T12:24:23;13.07;;;6.18;;
75358;SDS011;64046;51.978;5.934;2023-10-13T12:27:07;21.38;;;5.72;;
75358;SDS011;64046;51.978;5.934;2023-10-13T12:29:50;13.60;;;5.93;;
75358;SDS011;64046;51.978;5.934;2023-10-13T12:32:35;16.58;;;5.88;;
75358;SDS011;64046;51.978;5.934;2023-10-13T12:35:11;16.88;;;6.00;;
75358;SDS011;64046;51.978;5.934;2023-10-13T12:37:53;15.25;;;5.80;;
75358;SDS011;64046;51.978;5.934;2023-10-13T12:40:30;16.38;;;5.78;;
75358;SDS011;64046;51.978;5.934;2023-10-13T12:43:12;19.95;;;6.47;;
75358;SDS011;64046;51.978;5.934;2023-10-13T12:45:54;17.17;;;5.93;;
75358;SDS011;64046;51.978;5.934;2023-10-13T12:48:42;11.10;;;5.65;;
75358;SDS011;64046;51.978;5.934;2023-10-13T12:51:55;17.48;;;5.97;;
75358;SDS011;64046;51.978;5.934;2023-10-13T12:54:24;22.38;;;6.38;;
75358;SDS011;64046;51.978;5.934;2023-10-13T12:57:01;15.65;;;6.97;;
75358;SDS011;64046;51.978;5.934;2023-10-13T12:59:35;15.38;;;6.03;;
75358;SDS011;64046;51.978;5.934;2023-10-13T13:02:05;13.02;;;5.50;;
75358;SDS011;64046;51.978;5.934;2023-10-13T13:04:43;29.38;;;6.80;;
75358;SDS011;64046;51.978;5.934;2023-10-13T13:07:18;20.67;;;6.78;;
75358;SDS011;64046;51.978;5.934;2023-10-13T13:09:50;16.75;;;5.50;;
75358;SDS011;64046;51.978;5.934;2023-10-13T13:12:22;18.90;;;5.85;;
75358;SDS011;64046;51.978;5.934;2023-10-13T13:14:54;17.70;;;5.57;;
75358;SDS011;64046;51.978;5.934;2023-10-13T13:17:38;15.45;;;5.88;;
75358;SDS011;64046;51.978;5.934;2023-10-13T13:20:11;22.75;;;5.97;;
75358;SDS011;64046;51.978;5.934;2023-10-13T13:22:52;15.80;;;6.03;;
75358;SDS011;64046;51.978;5.934;2023-10-13T13:25:28;20.50;;;5.40;;
75358;SDS011;64046;51.978;5.934;2023-10-13T13:28:08;14.90;;;5.68;;
75358;SDS011;64046;51.978;5.934;2023-10-13T13:30:41;15.82;;;5.57;;
75358;SDS011;64046;51.978;5.934;2023-10-13T13:33:10;16.77;;;5.95;;
75358;SDS011;64046;51.978;5.934;2023-10-13T13:35:46;15.07;;;5.38;;
75358;SDS011;64046;51.978;5.934;2023-10-13T13:38:19;11.70;;;5.10;;
75358;SDS011;64046;51.978;5.934;2023-10-13T13:40:53;9.20;;;4.93;;
75358;SDS011;64046;51.978;5.934;2023-10-13T13:43:28;14.82;;;5.43;;
75358;SDS011;64046;51.978;5.934;2023-10-13T13:46:03;16.33;;;5.38;;
75358;SDS011;64046;51.978;5.934;2023-10-13T13:48:35;24.45;;;5.88;;
75358;SDS011;64046;51.978;5.934;2023-10-13T13:51:10;17.33;;;5.38;;
75358;SDS011;64046;51.978;5.934;2023-10-13T13:53:53;15.82;;;5.70;;
75358;SDS011;64046;51.978;5.934;2023-10-13T13:56:25;14.35;;;5.53;;
75358;SDS011;64046;51.978;5.934;2023-10-13T13:58:58;15.70;;;5.28;;
75358;SDS011;64046;51.978;5.934;2023-10-13T14:01:34;11.30;;;4.25;;
75358;SDS011;64046;51.978;5.934;2023-10-13T14:04:10;15.07;;;4.72;;
75358;SDS011;64046;51.978;5.934;2023-10-13T14:06:48;12.95;;;4.93;;
75358;SDS011;64046;51.978;5.934;2023-10-13T14:09:18;13.27;;;4.80;;
75358;SDS011;64046;51.978;5.934;2023-10-13T14:11:58;9.80;;;4.30;;
75358;SDS011;64046;51.978;5.934;2023-10-13T14:14:42;11.00;;;5.28;;
75358;SDS011;64046;51.978;5.934;2023-10-13T14:17:21;12.93;;;4.35;;
75358;SDS011;64046;51.978;5.934;2023-10-13T14:19:55;17.10;;;5.32;;
75358;SDS011;64046;51.978;5.934;2023-10-13T14:22:28;14.30;;;4.80;;
75358;SDS011;64046;51.978;5.934;2023-10-13T14:25:05;17.50;;;4.90;;
75358;SDS011;64046;51.978;5.934;2023-10-13T14:27:40;12.45;;;4.75;;
75358;SDS011;64046;51.978;5.934;2023-10-13T14:30:11;14.65;;;4.55;;
75358;SDS011;64046;51.978;5.934;2023-10-13T14:32:46;15.55;;;4.88;;
75358;SDS011;64046;51.978;5.934;2023-10-13T14:35:16;11.57;;;4.93;;
75358;SDS011;64046;51.978;5.934;2023-10-13T14:37:49;14.80;;;4.80;;
75358;SDS011;64046;51.978;5.934;2023-10-13T14:40:18;12.50;;;4.63;;
75358;SDS011;64046;51.978;5.934;2023-10-13T14:42:54;12.20;;;4.35;;
75358;SDS011;64046;51.978;5.934;2023-10-13T14:45:26;10.73;;;4.63;;
75358;SDS011;64046;51.978;5.934;2023-10-13T14:47:59;9.48;;;4.28;;
75358;SDS011;64046;51.978;5.934;2023-10-13T14:50:39;17.75;;;4.65;;
75358;SDS011;64046;51.978;5.934;2023-10-13T14:53:14;16.27;;;4.97;;
75358;SDS011;64046;51.978;5.934;2023-10-13T14:55:47;17.15;;;4.70;;
75358;SDS011;64046;51.978;5.934;2023-10-13T14:58:22;17.83;;;5.03;;
75358;SDS011;64046;51.978;5.934;2023-10-13T15:00:52;16.67;;;4.72;;
75358;SDS011;64046;51.978;5.934;2023-10-13T15:03:27;17.55;;;4.82;;
75358;SDS011;64046;51.978;5.934;2023-10-13T15:05:58;20.42;;;4.97;;
75358;SDS011;64046;51.978;5.934;2023-10-13T15:08:33;16.10;;;4.82;;
75358;SDS011;64046;51.978;5.934;2023-10-13T15:11:10;12.65;;;4.70;;
75358;SDS011;64046;51.978;5.934;2023-10-13T15:13:41;15.93;;;4.80;;
75358;SDS011;64046;51.978;5.934;2023-10-13T15:16:14;13.40;;;4.80;;
75358;SDS011;64046;51.978;5.934;2023-10-13T15:18:45;12.10;;;4.82;;
75358;SDS011;64046;51.978;5.934;2023-10-13T15:21:20;8.77;;;4.38;;
75358;SDS011;64046;51.978;5.934;2023-10-13T15:23:54;15.73;;;5.50;;
75358;SDS011;64046;51.978;5.934;2023-10-13T15:26:27;14.20;;;4.50;;
75358;SDS011;64046;51.978;5.934;2023-10-13T15:28:57;13.10;;;4.53;;
75358;SDS011;64046;51.978;5.934;2023-10-13T15:31:27;13.07;;;4.95;;
75358;SDS011;64046;51.978;5.934;2023-10-13T15:34:11;11.38;;;5.00;;
75358;SDS011;64046;51.978;5.934;2023-10-13T15:36:46;16.05;;;4.22;;
75358;SDS011;64046;51.978;5.934;2023-10-13T15:39:22;21.55;;;5.93;;
75358;SDS011;64046;51.978;5.934;2023-10-13T15:41:57;14.43;;;4.68;;